createdAt,value
2019-02-02T00:09:04.581Z,50.17
2019-02-02T00:19:05.840Z,55.33
2019-02-02T00:29:07.108Z,60.93
2019-02-02T00:39:08.348Z,57.13
2019-02-02T00:49:09.600Z,58.47
2019-02-02T00:59:10.844Z,51.57
2019-02-02T01:09:12.087Z,54.77
2019-02-02T01:19:13.340Z,49.73
2019-02-02T01:29:14.596Z,39.07
2019-02-02T01:39:15.879Z,47.03
2019-02-02T01:49:17.155Z,44.93
2019-02-02T01:59:19.250Z,45.27
2019-02-02T02:09:20.513Z,52.57
2019-02-02T02:19:21.769Z,60.20
2019-02-02T02:29:23.023Z,51.63
2019-02-02T02:39:24.262Z,52.87
2019-02-02T02:49:25.527Z,45.40
2019-02-02T02:59:27.538Z,50.70
2019-02-02T03:09:29.578Z,50.77
2019-02-02T03:19:30.832Z,50.50
2019-02-02T03:29:32.098Z,46.03
2019-02-02T03:39:33.368Z,51.50
2019-02-02T03:49:34.645Z,52.43
2019-02-02T03:59:36.705Z,48.23
2019-02-02T04:09:37.964Z,48.60
2019-02-02T04:19:39.228Z,45.60
2019-02-02T04:29:40.469Z,50.47
2019-02-02T04:39:41.704Z,53.23
2019-02-02T04:49:42.953Z,54.87
2019-02-02T04:59:44.229Z,48.37
2019-02-02T05:09:46.267Z,46.87
2019-02-02T05:19:47.533Z,49.83
2019-02-02T05:29:49.562Z,48.27
2019-02-02T05:39:51.583Z,51.73
2019-02-02T05:49:52.969Z,40.67
2019-02-02T05:59:54.386Z,48.80
2019-02-02T06:09:55.657Z,54.50
2019-02-02T06:19:57.881Z,47.63
2019-02-02T06:30:04.572Z,42.40
2019-02-02T06:40:00.618Z,38.37
2019-02-02T06:50:01.916Z,38.60
2019-02-02T07:00:15.503Z,44.07
2019-02-02T07:10:07.606Z,50.73
2019-02-02T07:20:08.875Z,44.00
2019-02-02T07:30:10.148Z,47.77
2019-02-02T08:10:36.792Z,39.00
2019-02-02T08:20:38.952Z,40.13
2019-02-02T08:30:51.622Z,41.30
2019-02-02T08:40:41.532Z,37.70
2019-02-02T08:50:44.374Z,51.83
2019-02-02T09:31:15.474Z,41.70
2019-02-02T10:01:27.808Z,33.67
2019-02-02T10:11:27.333Z,34.97
2019-02-02T10:21:28.617Z,33.93
2019-02-02T10:31:39.404Z,31.87
2019-02-02T10:41:33.929Z,32.37
2019-02-02T10:51:36.028Z,28.73
2019-02-02T11:42:06.063Z,11.20
2019-02-02T11:52:11.614Z,15.13
2019-02-02T12:02:14.440Z,18.83
2019-02-02T12:22:22.083Z,10.63
2019-02-02T12:32:26.788Z,7.53
2019-02-02T12:42:24.640Z,7.23
2019-02-02T12:52:26.005Z,7.07
2019-02-02T13:02:37.892Z,8.43
2019-02-02T13:12:28.646Z,9.00
2019-02-02T13:22:34.300Z,8.57
2019-02-02T13:32:33.634Z,6.23
2019-02-02T13:42:34.898Z,5.27
2019-02-02T13:52:36.170Z,6.77
2019-02-02T14:02:37.509Z,6.67
2019-02-02T14:12:38.757Z,4.97
2019-02-02T14:22:40.009Z,5.73
2019-02-02T14:32:42.040Z,5.40
2019-02-02T14:42:44.086Z,5.13
2019-02-02T14:52:45.332Z,2.30
2019-02-02T15:02:46.573Z,2.30
2019-02-02T15:12:47.842Z,2.97
2019-02-02T15:22:49.111Z,1.50
2019-02-02T15:32:50.401Z,3.37
2019-02-02T15:42:51.657Z,2.00
2019-02-02T15:52:52.924Z,5.03
2019-02-02T16:02:54.958Z,3.67
2019-02-02T16:12:56.234Z,3.40
2019-02-02T16:22:58.274Z,4.13
2019-02-02T16:43:06.604Z,7.33
2019-02-02T17:13:22.016Z,12.03
2019-02-02T17:23:23.407Z,12.50
2019-02-02T17:33:26.561Z,12.65
2019-02-02T17:43:25.964Z,10.63
2019-02-02T17:53:27.225Z,10.03
2019-02-02T18:03:28.496Z,13.47
2019-02-02T18:13:29.753Z,12.37
2019-02-02T18:23:30.995Z,14.07
2019-02-02T18:33:33.050Z,13.23
2019-02-02T18:43:34.284Z,8.97
2019-02-02T18:53:37.629Z,10.77
2019-02-02T19:03:38.897Z,13.93
2019-02-02T19:13:40.226Z,21.93
2019-02-02T19:23:41.509Z,21.70
2019-02-02T19:33:42.795Z,24.83
2019-02-02T19:43:44.063Z,25.33
2019-02-02T19:53:45.431Z,20.60
2019-02-02T20:03:46.885Z,24.23
2019-02-02T20:13:48.235Z,20.67
2019-02-02T20:23:50.250Z,21.40
2019-02-02T20:33:52.372Z,23.17
2019-02-02T20:43:53.646Z,18.63
2019-02-02T20:53:55.662Z,20.73
2019-02-02T21:03:56.970Z,16.27
2019-02-02T21:13:58.279Z,16.93
2019-02-02T21:23:59.552Z,15.80
2019-02-02T21:34:06.768Z,18.60
2019-02-02T21:44:08.066Z,16.90
2019-02-02T21:54:09.357Z,17.03
2019-02-02T22:04:10.624Z,17.30
2019-02-02T22:14:11.894Z,14.27
2019-02-02T22:24:13.193Z,19.33
2019-02-02T22:34:14.497Z,11.97
2019-02-02T22:44:15.786Z,15.80
2019-02-02T22:54:17.095Z,15.60
2019-02-02T23:04:18.408Z,14.53
2019-02-02T23:14:19.695Z,14.07
2019-02-02T23:34:28.588Z,18.60
2019-02-02T23:44:29.865Z,19.20
2019-02-02T23:54:31.190Z,16.50
